sensor_id;sensor_type;location;lat;lon;timestamp;pressure;altitude;pressure_sealevel;temperature;humidity
44027;BME280;29696;55.698;37.460;2023-07-31T00:02:10;98713.53;;;15.43;73.68
44027;BME280;29696;55.698;37.460;2023-07-31T00:04:37;98721.44;;;15.36;74.17
44027;BME280;29696;55.698;37.460;2023-07-31T00:07:03;98729.63;;;15.35;74.39
44027;BME280;29696;55.698;37.460;2023-07-31T00:09:30;98715.59;;;15.26;74.65
44027;BME280;29696;55.698;37.460;2023-07-31T00:11:56;98716.72;;;15.17;74.83
44027;BME280;29696;55.698;37.460;2023-07-31T00:14:23;98723.25;;;15.14;75.39
44027;BME280;29696;55.698;37.460;2023-07-31T00:16:49;98723.41;;;15.13;75.25
44027;BME280;29696;55.698;37.460;2023-07-31T00:19:16;98719.38;;;15.17;75.03
44027;BME280;29696;55.698;37.460;2023-07-31T00:21:43;98723.69;;;15.18;75.12
44027;BME280;29696;55.698;37.460;2023-07-31T00:24:10;98723.25;;;15.14;75.07
44027;BME280;29696;55.698;37.460;2023-07-31T00:26:36;98722.78;;;15.11;75.11
44027;BME280;29696;55.698;37.460;2023-07-31T00:29:02;98720.31;;;15.09;75.27
44027;BME280;29696;55.698;37.460;2023-07-31T00:31:30;98724.97;;;15.07;75.40
44027;BME280;29696;55.698;37.460;2023-07-31T00:33:56;98718.56;;;15.01;75.63
44027;BME280;29696;55.698;37.460;2023-07-31T00:36:23;98725.91;;;14.99;75.91
44027;BME280;29696;55.698;37.460;2023-07-31T00:38:49;98722.44;;;14.99;75.99
44027;BME280;29696;55.698;37.460;2023-07-31T00:41:15;98718.31;;;14.96;76.30
44027;BME280;29696;55.698;37.460;2023-07-31T00:43:42;98718.31;;;14.96;76.21
44027;BME280;29696;55.698;37.460;2023-07-31T00:46:08;98716.19;;;14.92;76.57
44027;BME280;29696;55.698;37.460;2023-07-31T00:48:35;98707.56;;;14.90;76.46
44027;BME280;29696;55.698;37.460;2023-07-31T00:51:02;98712.06;;;14.89;76.70
44027;BME280;29696;55.698;37.460;2023-07-31T00:53:28;98716.38;;;14.90;77.27
44027;BME280;29696;55.698;37.460;2023-07-31T00:55:55;98708.13;;;14.85;77.30
44027;BME280;29696;55.698;37.460;2023-07-31T00:58:22;98704.00;;;14.82;77.27
44027;BME280;29696;55.698;37.460;2023-07-31T01:00:49;98701.91;;;14.78;77.02
44027;BME280;29696;55.698;37.460;2023-07-31T01:03:17;98707.22;;;14.78;77.32
44027;BME280;29696;55.698;37.460;2023-07-31T01:05:54;98710.13;;;14.83;77.60
44027;BME280;29696;55.698;37.460;2023-07-31T01:08:36;98706.47;;;14.84;77.68
44027;BME280;29696;55.698;37.460;2023-07-31T01:11:15;98711.81;;;14.84;77.42
44027;BME280;29696;55.698;37.460;2023-07-31T01:13:44;98714.09;;;14.87;77.44
44027;BME280;29696;55.698;37.460;2023-07-31T01:16:12;98716.09;;;14.85;77.53
44027;BME280;29696;55.698;37.460;2023-07-31T01:18:38;98711.44;;;14.87;77.21
44027;BME280;29696;55.698;37.460;2023-07-31T01:25:15;98714.63;;;14.97;76.96
44027;BME280;29696;55.698;37.460;2023-07-31T01:27:56;98703.53;;;14.94;76.78
44027;BME280;29696;55.698;37.460;2023-07-31T01:30:28;98707.22;;;14.93;76.94
44027;BME280;29696;55.698;37.460;2023-07-31T01:33:00;98711.06;;;14.90;76.63
44027;BME280;29696;55.698;37.460;2023-07-31T01:35:30;98714.81;;;14.96;76.49
44027;BME280;29696;55.698;37.460;2023-07-31T01:37:56;98707.38;;;14.91;76.65
44027;BME280;29696;55.698;37.460;2023-07-31T01:40:22;98710.69;;;14.93;76.47
44027;BME280;29696;55.698;37.460;2023-07-31T01:42:49;98706.00;;;14.95;76.33
44027;BME280;29696;55.698;37.460;2023-07-31T01:45:15;98712.34;;;14.94;76.25
44027;BME280;29696;55.698;37.460;2023-07-31T01:47:42;98705.00;;;14.96;76.25
44027;BME280;29696;55.698;37.460;2023-07-31T01:50:09;98710.13;;;14.98;76.53
44027;BME280;29696;55.698;37.460;2023-07-31T01:52:36;98702.34;;;14.96;76.20
44027;BME280;29696;55.698;37.460;2023-07-31T01:55:03;98712.41;;;15.01;75.87
44027;BME280;29696;55.698;37.460;2023-07-31T01:57:29;98710.19;;;15.04;76.00
44027;BME280;29696;55.698;37.460;2023-07-31T01:59:56;98705.72;;;15.05;76.35
44027;BME280;29696;55.698;37.460;2023-07-31T02:02:22;98709.59;;;15.02;76.39
44027;BME280;29696;55.698;37.460;2023-07-31T02:04:51;98706.91;;;15.17;75.48
44027;BME280;29696;55.698;37.460;2023-07-31T02:07:18;98706.94;;;15.39;74.88
44027;BME280;29696;55.698;37.460;2023-07-31T02:09:44;98709.38;;;15.55;73.86
44027;BME280;29696;55.698;37.460;2023-07-31T02:12:13;98702.66;;;15.59;73.19
44027;BME280;29696;55.698;37.460;2023-07-31T02:14:40;98709.47;;;15.62;73.15
44027;BME280;29696;55.698;37.460;2023-07-31T02:17:07;98704.13;;;15.62;73.16
44027;BME280;29696;55.698;37.460;2023-07-31T02:19:53;98704.50;;;15.59;73.60
44027;BME280;29696;55.698;37.460;2023-07-31T02:22:20;98716.41;;;15.63;73.33
44027;BME280;29696;55.698;37.460;2023-07-31T02:24:46;98718.25;;;15.62;74.16
44027;BME280;29696;55.698;37.460;2023-07-31T02:27:12;98720.09;;;15.62;73.84
44027;BME280;29696;55.698;37.460;2023-07-31T02:29:39;98712.72;;;15.64;73.19
44027;BME280;29696;55.698;37.460;2023-07-31T02:32:06;98713.38;;;15.66;72.89
44027;BME280;29696;55.698;37.460;2023-07-31T02:34:32;98708.84;;;15.81;72.32
44027;BME280;29696;55.698;37.460;2023-07-31T02:36:58;98716.03;;;16.30;70.96
44027;BME280;29696;55.698;37.460;2023-07-31T02:39:26;98708.41;;;16.83;69.53
44027;BME280;29696;55.698;37.460;2023-07-31T02:41:52;98711.56;;;17.42;67.96
44027;BME280;29696;55.698;37.460;2023-07-31T02:44:19;98713.53;;;17.94;65.87
44027;BME280;29696;55.698;37.460;2023-07-31T02:46:46;98716.63;;;18.44;63.54
44027;BME280;29696;55.698;37.460;2023-07-31T02:49:12;98716.81;;;18.89;61.60
44027;BME280;29696;55.698;37.460;2023-07-31T02:51:39;98711.91;;;19.31;59.70
44027;BME280;29696;55.698;37.460;2023-07-31T02:54:05;98713.97;;;19.81;58.06
44027;BME280;29696;55.698;37.460;2023-07-31T02:56:32;98722.00;;;20.38;56.13
44027;BME280;29696;55.698;37.460;2023-07-31T02:58:59;98715.38;;;20.84;55.04
44027;BME280;29696;55.698;37.460;2023-07-31T03:01:25;98712.28;;;21.35;53.84
44027;BME280;29696;55.698;37.460;2023-07-31T03:03:51;98720.81;;;21.81;52.03
44027;BME280;29696;55.698;37.460;2023-07-31T03:06:18;98711.69;;;22.24;51.45
44027;BME280;29696;55.698;37.460;2023-07-31T03:08:44;98715.56;;;22.75;49.65
44027;BME280;29696;55.698;37.460;2023-07-31T03:11:10;98711.88;;;23.28;48.10
44027;BME280;29696;55.698;37.460;2023-07-31T03:13:37;98710.88;;;23.75;47.17
44027;BME280;29696;55.698;37.460;2023-07-31T03:16:03;98706.78;;;24.18;46.07
44027;BME280;29696;55.698;37.460;2023-07-31T03:18:30;98713.28;;;24.50;44.41
44027;BME280;29696;55.698;37.460;2023-07-31T03:20:56;98704.91;;;24.91;43.26
44027;BME280;29696;55.698;37.460;2023-07-31T03:23:22;98704.38;;;25.33;43.78
44027;BME280;29696;55.698;37.460;2023-07-31T03:26:02;98707.84;;;26.04;42.59
44027;BME280;29696;55.698;37.460;2023-07-31T03:28:31;98701.03;;;26.71;40.47
44027;BME280;29696;55.698;37.460;2023-07-31T03:30:58;98709.81;;;27.41;38.53
44027;BME280;29696;55.698;37.460;2023-07-31T03:33:25;98703.69;;;27.82;38.62
44027;BME280;29696;55.698;37.460;2023-07-31T03:35:52;98698.28;;;28.28;37.28
44027;BME280;29696;55.698;37.460;2023-07-31T03:38:19;98711.03;;;28.68;37.06
44027;BME280;29696;55.698;37.460;2023-07-31T03:40:45;98699.75;;;29.16;35.88
44027;BME280;29696;55.698;37.460;2023-07-31T03:43:12;98708.78;;;29.66;34.70
44027;BME280;29696;55.698;37.460;2023-07-31T03:45:40;98690.84;;;29.99;33.64
44027;BME280;29696;55.698;37.460;2023-07-31T03:48:07;98701.53;;;30.30;33.63
44027;BME280;29696;55.698;37.460;2023-07-31T03:50:34;98704.25;;;30.88;32.92
44027;BME280;29696;55.698;37.460;2023-07-31T03:53:01;98710.88;;;31.49;31.77
44027;BME280;29696;55.698;37.460;2023-07-31T03:55:27;98705.13;;;31.88;31.24
44027;BME280;29696;55.698;37.460;2023-07-31T03:57:53;98711.38;;;32.26;30.69
44027;BME280;29696;55.698;37.460;2023-07-31T04:00:20;98706.91;;;32.63;30.51
44027;BME280;29696;55.698;37.460;2023-07-31T04:02:48;98708.88;;;33.32;29.44
44027;BME280;29696;55.698;37.460;2023-07-31T04:05:14;98706.94;;;33.60;28.78
44027;BME280;29696;55.698;37.460;2023-07-31T04:07:41;98712.78;;;34.03;27.96
44027;BME280;29696;55.698;37.460;2023-07-31T04:10:07;98714.66;;;34.62;26.92
44027;BME280;29696;55.698;37.460;2023-07-31T04:12:34;98710.16;;;35.06;26.69
44027;BME280;29696;55.698;37.460;2023-07-31T04:15:00;98724.16;;;35.53;25.90
44027;BME280;29696;55.698;37.460;2023-07-31T04:17:27;98724.41;;;36.08;25.32
44027;BME280;29696;55.698;37.460;2023-07-31T04:19:53;98726.13;;;36.39;24.64
44027;BME280;29696;55.698;37.460;2023-07-31T04:22:19;98728.53;;;36.58;24.70
44027;BME280;29696;55.698;37.460;2023-07-31T04:24:46;98730.22;;;36.89;23.59
44027;BME280;29696;55.698;37.460;2023-07-31T04:27:12;98724.59;;;37.15;23.75
44027;BME280;29696;55.698;37.460;2023-07-31T04:29:38;98726.72;;;37.39;23.65
44027;BME280;29696;55.698;37.460;2023-07-31T04:32:06;98737.41;;;37.91;23.12
44027;BME280;29696;55.698;37.460;2023-07-31T04:34:32;98725.88;;;38.31;21.96
44027;BME280;29696;55.698;37.460;2023-07-31T04:36:59;98732.59;;;38.42;22.83
44027;BME280;29696;55.698;37.460;2023-07-31T04:39:25;98734.25;;;38.68;21.48
44027;BME280;29696;55.698;37.460;2023-07-31T04:41:51;98729.81;;;39.12;21.41
44027;BME280;29696;55.698;37.460;2023-07-31T04:44:18;98735.00;;;39.26;21.37
44027;BME280;29696;55.698;37.460;2023-07-31T04:46:44;98727.13;;;39.77;20.38
44027;BME280;29696;55.698;37.460;2023-07-31T04:49:11;98732.13;;;40.00;20.86
44027;BME280;29696;55.698;37.460;2023-07-31T04:51:38;98735.81;;;40.04;20.25
44027;BME280;29696;55.698;37.460;2023-07-31T04:54:04;98733.88;;;40.48;19.82
44027;BME280;29696;55.698;37.460;2023-07-31T04:56:30;98732.97;;;41.04;19.64
44027;BME280;29696;55.698;37.460;2023-07-31T04:58:57;98740.78;;;41.34;19.37
44027;BME280;29696;55.698;37.460;2023-07-31T05:01:23;98746.22;;;41.81;19.06
44027;BME280;29696;55.698;37.460;2023-07-31T05:03:49;98733.13;;;41.98;18.65
44027;BME280;29696;55.698;37.460;2023-07-31T05:06:16;98741.34;;;42.33;19.06
44027;BME280;29696;55.698;37.460;2023-07-31T05:08:42;98736.38;;;42.65;17.79
44027;BME280;29696;55.698;37.460;2023-07-31T05:11:09;98737.38;;;42.99;17.84
44027;BME280;29696;55.698;37.460;2023-07-31T05:13:35;98732.69;;;43.03;17.68
44027;BME280;29696;55.698;37.460;2023-07-31T05:16:01;98732.75;;;43.34;16.92
44027;BME280;29696;55.698;37.460;2023-07-31T05:18:28;98730.69;;;43.27;17.43
44027;BME280;29696;55.698;37.460;2023-07-31T05:20:54;98737.06;;;43.84;16.65
44027;BME280;29696;55.698;37.460;2023-07-31T05:23:21;98730.69;;;44.14;16.23
44027;BME280;29696;55.698;37.460;2023-07-31T05:25:47;98730.69;;;44.14;16.97
44027;BME280;29696;55.698;37.460;2023-07-31T05:28:13;98737.44;;;44.50;15.50
44027;BME280;29696;55.698;37.460;2023-07-31T05:30:40;98729.00;;;44.84;15.61
44027;BME280;29696;55.698;37.460;2023-07-31T05:33:06;98733.84;;;44.91;15.42
44027;BME280;29696;55.698;37.460;2023-07-31T05:35:33;98737.28;;;45.21;15.05
44027;BME280;29696;55.698;37.460;2023-07-31T05:37:59;98736.78;;;45.71;15.70
44027;BME280;29696;55.698;37.460;2023-07-31T05:40:26;98735.97;;;45.67;15.44
44027;BME280;29696;55.698;37.460;2023-07-31T05:42:52;98735.72;;;45.97;14.93
44027;BME280;29696;55.698;37.460;2023-07-31T05:45:19;98741.41;;;46.26;14.26
44027;BME280;29696;55.698;37.460;2023-07-31T05:47:45;98737.50;;;46.66;14.77
44027;BME280;29696;55.698;37.460;2023-07-31T05:50:12;98746.28;;;46.93;14.06
44027;BME280;29696;55.698;37.460;2023-07-31T05:52:39;98739.91;;;47.21;13.76
44027;BME280;29696;55.698;37.460;2023-07-31T05:55:05;98740.72;;;47.40;14.07
44027;BME280;29696;55.698;37.460;2023-07-31T05:57:32;98734.25;;;47.61;13.29
44027;BME280;29696;55.698;37.460;2023-07-31T05:59:58;98735.06;;;47.58;13.30
44027;BME280;29696;55.698;37.460;2023-07-31T06:02:24;98735.78;;;47.83;13.49
44027;BME280;29696;55.698;37.460;2023-07-31T06:04:51;98732.44;;;48.17;13.54
44027;BME280;29696;55.698;37.460;2023-07-31T06:07:17;98730.31;;;48.35;13.11
44027;BME280;29696;55.698;37.460;2023-07-31T06:09:45;98724.13;;;47.95;13.04
44027;BME280;29696;55.698;37.460;2023-07-31T06:12:11;98729.25;;;48.15;12.95
44027;BME280;29696;55.698;37.460;2023-07-31T06:14:38;98731.16;;;48.32;13.08
44027;BME280;29696;55.698;37.460;2023-07-31T06:17:05;98732.25;;;48.45;13.05
44027;BME280;29696;55.698;37.460;2023-07-31T06:19:31;98726.13;;;48.65;13.00
44027;BME280;29696;55.698;37.460;2023-07-31T06:21:58;98727.03;;;48.51;12.47
44027;BME280;29696;55.698;37.460;2023-07-31T06:24:24;98730.44;;;48.73;11.85
44027;BME280;29696;55.698;37.460;2023-07-31T06:26:50;98735.94;;;48.95;12.07
44027;BME280;29696;55.698;37.460;2023-07-31T06:29:17;98732.34;;;48.90;12.22
44027;BME280;29696;55.698;37.460;2023-07-31T06:31:43;98727.81;;;49.04;12.17
44027;BME280;29696;55.698;37.460;2023-07-31T06:34:10;98732.47;;;49.18;12.03
44027;BME280;29696;55.698;37.460;2023-07-31T06:36:36;98742.06;;;49.24;11.82
44027;BME280;29696;55.698;37.460;2023-07-31T06:39:02;98736.09;;;49.22;11.88
44027;BME280;29696;55.698;37.460;2023-07-31T06:41:30;98738.72;;;49.40;12.04
44027;BME280;29696;55.698;37.460;2023-07-31T06:43:56;98741.28;;;49.61;11.75
44027;BME280;29696;55.698;37.460;2023-07-31T06:46:22;98738.16;;;49.86;11.82
44027;BME280;29696;55.698;37.460;2023-07-31T06:48:49;98743.69;;;49.97;11.25
44027;BME280;29696;55.698;37.460;2023-07-31T06:51:16;98739.34;;;49.89;11.40
44027;BME280;29696;55.698;37.460;2023-07-31T06:53:42;98735.63;;;49.27;11.93
44027;BME280;29696;55.698;37.460;2023-07-31T06:56:11;98737.53;;;49.33;10.54
44027;BME280;29696;55.698;37.460;2023-07-31T06:58:38;98741.69;;;49.18;11.48
44027;BME280;29696;55.698;37.460;2023-07-31T07:01:04;98734.69;;;49.41;10.64
44027;BME280;29696;55.698;37.460;2023-07-31T07:03:31;98740.53;;;49.16;11.45
44027;BME280;29696;55.698;37.460;2023-07-31T07:05:58;98733.94;;;49.37;11.05
44027;BME280;29696;55.698;37.460;2023-07-31T07:08:24;98734.44;;;49.28;11.44
44027;BME280;29696;55.698;37.460;2023-07-31T07:10:51;98740.19;;;49.48;11.55
44027;BME280;29696;55.698;37.460;2023-07-31T07:13:17;98742.75;;;49.73;11.02
44027;BME280;29696;55.698;37.460;2023-07-31T07:15:53;98748.84;;;50.83;11.14
44027;BME280;29696;55.698;37.460;2023-07-31T07:18:19;98734.72;;;50.06;10.27
44027;BME280;29696;55.698;37.460;2023-07-31T07:20:51;98751.34;;;50.51;11.15
44027;BME280;29696;55.698;37.460;2023-07-31T07:23:19;98734.81;;;49.98;11.03
44027;BME280;29696;55.698;37.460;2023-07-31T07:25:46;98741.53;;;49.74;10.81
44027;BME280;29696;55.698;37.460;2023-07-31T07:28:13;98732.91;;;49.54;10.72
44027;BME280;29696;55.698;37.460;2023-07-31T07:30:40;98733.78;;;49.06;10.62
44027;BME280;29696;55.698;37.460;2023-07-31T07:33:06;98736.72;;;48.91;11.15
44027;BME280;29696;55.698;37.460;2023-07-31T07:35:34;98736.81;;;48.81;11.23
44027;BME280;29696;55.698;37.460;2023-07-31T07:38:03;98744.25;;;49.02;10.58
44027;BME280;29696;55.698;37.460;2023-07-31T07:40:30;98730.25;;;48.42;11.61
44027;BME280;29696;55.698;37.460;2023-07-31T07:42:56;98729.41;;;48.56;11.77
44027;BME280;29696;55.698;37.460;2023-07-31T07:45:23;98728.16;;;48.61;11.83
44027;BME280;29696;55.698;37.460;2023-07-31T07:47:49;98728.94;;;48.65;11.81
44027;BME280;29696;55.698;37.460;2023-07-31T07:50:16;98733.69;;;48.72;11.23
44027;BME280;29696;55.698;37.460;2023-07-31T07:52:42;98728.03;;;48.75;11.25
44027;BME280;29696;55.698;37.460;2023-07-31T07:55:08;98732.13;;;47.93;12.07
44027;BME280;29696;55.698;37.460;2023-07-31T07:57:35;98722.94;;;47.96;11.91
44027;BME280;29696;55.698;37.460;2023-07-31T08:00:01;98728.34;;;46.94;12.46
44027;BME280;29696;55.698;37.460;2023-07-31T08:02:28;98725.28;;;44.32;14.20
44027;BME280;29696;55.698;37.460;2023-07-31T08:04:55;98726.94;;;41.69;16.54
44027;BME280;29696;55.698;37.460;2023-07-31T08:07:21;98716.66;;;42.93;15.89
44027;BME280;29696;55.698;37.460;2023-07-31T08:09:47;98728.63;;;44.07;16.28
44027;BME280;29696;55.698;37.460;2023-07-31T08:12:14;98724.28;;;44.92;13.86
44027;BME280;29696;55.698;37.460;2023-07-31T08:14:40;98732.03;;;45.13;13.42
44027;BME280;29696;55.698;37.460;2023-07-31T08:17:06;98732.25;;;45.48;13.46
44027;BME280;29696;55.698;37.460;2023-07-31T08:19:33;98732.34;;;45.59;13.60
44027;BME280;29696;55.698;37.460;2023-07-31T08:21:59;98736.63;;;45.42;13.96
44027;BME280;29696;55.698;37.460;2023-07-31T08:24:26;98737.09;;;43.88;15.27
44027;BME280;29696;55.698;37.460;2023-07-31T08:26:52;98727.81;;;43.76;14.12
44027;BME280;29696;55.698;37.460;2023-07-31T08:29:18;98719.13;;;43.51;14.29
44027;BME280;29696;55.698;37.460;2023-07-31T08:31:45;98727.94;;;42.81;15.76
44027;BME280;29696;55.698;37.460;2023-07-31T08:34:11;98729.34;;;42.29;16.22
44027;BME280;29696;55.698;37.460;2023-07-31T08:36:37;98725.03;;;41.73;17.63
44027;BME280;29696;55.698;37.460;2023-07-31T08:39:04;98725.09;;;40.90;17.57
44027;BME280;29696;55.698;37.460;2023-07-31T08:41:30;98725.09;;;39.25;18.57
44027;BME280;29696;55.698;37.460;2023-07-31T08:43:57;98731.31;;;38.40;19.64
44027;BME280;29696;55.698;37.460;2023-07-31T08:46:24;98730.75;;;37.50;19.27
44027;BME280;29696;55.698;37.460;2023-07-31T08:48:51;98728.25;;;36.07;21.06
44027;BME280;29696;55.698;37.460;2023-07-31T08:51:19;98732.75;;;34.71;23.24
44027;BME280;29696;55.698;37.460;2023-07-31T08:53:45;98722.16;;;33.52;24.08
44027;BME280;29696;55.698;37.460;2023-07-31T08:56:13;98744.22;;;32.40;25.98
44027;BME280;29696;55.698;37.460;2023-07-31T08:58:41;98737.69;;;31.84;28.13
44027;BME280;29696;55.698;37.460;2023-07-31T09:01:08;98742.41;;;31.60;28.16
44027;BME280;29696;55.698;37.460;2023-07-31T09:03:36;98730.72;;;31.35;26.76
44027;BME280;29696;55.698;37.460;2023-07-31T09:06:03;98737.44;;;31.19;29.46
44027;BME280;29696;55.698;37.460;2023-07-31T09:08:32;98724.09;;;30.93;29.10
44027;BME280;29696;55.698;37.460;2023-07-31T09:11:02;98737.03;;;30.83;28.91
44027;BME280;29696;55.698;37.460;2023-07-31T09:13:32;98717.47;;;30.46;28.20
44027;BME280;29696;55.698;37.460;2023-07-31T09:15:59;98720.31;;;30.31;28.74
44027;BME280;29696;55.698;37.460;2023-07-31T09:18:25;98722.84;;;30.17;28.69
44027;BME280;29696;55.698;37.460;2023-07-31T09:21:05;98736.31;;;30.43;29.20
44027;BME280;29696;55.698;37.460;2023-07-31T09:23:45;98735.03;;;30.30;29.60
44027;BME280;29696;55.698;37.460;2023-07-31T09:26:36;98718.75;;;30.25;29.33
44027;BME280;29696;55.698;37.460;2023-07-31T09:29:05;98728.91;;;29.70;30.60
44027;BME280;29696;55.698;37.460;2023-07-31T09:31:40;98731.13;;;29.63;30.15
44027;BME280;29696;55.698;37.460;2023-07-31T09:34:07;98727.22;;;29.19;30.05
44027;BME280;29696;55.698;37.460;2023-07-31T09:36:45;98725.81;;;29.32;30.34
44027;BME280;29696;55.698;37.460;2023-07-31T09:39:13;98727.50;;;29.12;30.88
44027;BME280;29696;55.698;37.460;2023-07-31T09:41:47;98736.16;;;29.30;31.02
44027;BME280;29696;55.698;37.460;2023-07-31T09:44:14;98721.53;;;29.16;30.04
44027;BME280;29696;55.698;37.460;2023-07-31T09:46:40;98720.72;;;29.15;30.62
44027;BME280;29696;55.698;37.460;2023-07-31T09:49:10;98724.81;;;29.07;30.84
44027;BME280;29696;55.698;37.460;2023-07-31T09:51:38;98725.41;;;28.79;31.08
44027;BME280;29696;55.698;37.460;2023-07-31T09:54:31;98738.97;;;29.04;29.87
44027;BME280;29696;55.698;37.460;2023-07-31T09:56:58;98737.94;;;28.70;30.70
44027;BME280;29696;55.698;37.460;2023-07-31T09:59:26;98744.44;;;28.84;30.86
44027;BME280;29696;55.698;37.460;2023-07-31T10:01:53;98744.13;;;29.01;31.12
44027;BME280;29696;55.698;37.460;2023-07-31T10:04:26;98741.91;;;29.13;31.01
44027;BME280;29696;55.698;37.460;2023-07-31T10:06:53;98729.44;;;29.07;31.59
44027;BME280;29696;55.698;37.460;2023-07-31T10:09:21;98733.78;;;28.93;30.36
44027;BME280;29696;55.698;37.460;2023-07-31T10:11:55;98735.75;;;28.82;31.35
44027;BME280;29696;55.698;37.460;2023-07-31T10:14:23;98731.97;;;28.57;31.58
44027;BME280;29696;55.698;37.460;2023-07-31T10:16:50;98724.63;;;28.22;32.78
44027;BME280;29696;55.698;37.460;2023-07-31T10:19:19;98736.84;;;28.04;33.18
44027;BME280;29696;55.698;37.460;2023-07-31T10:21:48;98742.53;;;27.92;33.57
44027;BME280;29696;55.698;37.460;2023-07-31T10:24:15;98731.66;;;27.87;34.52
44027;BME280;29696;55.698;37.460;2023-07-31T10:26:45;98739.00;;;28.07;33.17
44027;BME280;29696;55.698;37.460;2023-07-31T10:29:14;98740.09;;;28.01;32.51
44027;BME280;29696;55.698;37.460;2023-07-31T10:31:41;98737.63;;;27.99;33.11
44027;BME280;29696;55.698;37.460;2023-07-31T10:34:08;98739.84;;;27.97;32.88
44027;BME280;29696;55.698;37.460;2023-07-31T10:36:35;98728.69;;;27.89;32.43
44027;BME280;29696;55.698;37.460;2023-07-31T10:39:03;98738.72;;;27.93;32.54
44027;BME280;29696;55.698;37.460;2023-07-31T10:41:30;98744.94;;;27.84;33.22
44027;BME280;29696;55.698;37.460;2023-07-31T10:43:59;98741.91;;;27.70;33.90
44027;BME280;29696;55.698;37.460;2023-07-31T10:46:27;98744.34;;;27.61;35.13
44027;BME280;29696;55.698;37.460;2023-07-31T10:48:59;98742.66;;;27.55;34.10
44027;BME280;29696;55.698;37.460;2023-07-31T10:51:33;98744.00;;;27.47;35.20
44027;BME280;29696;55.698;37.460;2023-07-31T10:54:12;98748.56;;;27.37;34.18
44027;BME280;29696;55.698;37.460;2023-07-31T10:56:39;98740.28;;;27.06;34.44
44027;BME280;29696;55.698;37.460;2023-07-31T10:59:06;98738.06;;;26.98;34.57
44027;BME280;29696;55.698;37.460;2023-07-31T11:01:54;98746.16;;;27.40;33.83
44027;BME280;29696;55.698;37.460;2023-07-31T11:04:29;98732.91;;;27.54;34.64
44027;BME280;29696;55.698;37.460;2023-07-31T11:07:17;98742.81;;;28.16;33.37
44027;BME280;29696;55.698;37.460;2023-07-31T11:09:43;98741.22;;;28.31;34.38
44027;BME280;29696;55.698;37.460;2023-07-31T11:12:10;98730.06;;;28.53;34.14
44027;BME280;29696;55.698;37.460;2023-07-31T11:14:37;98729.25;;;28.47;33.92
44027;BME280;29696;55.698;37.460;2023-07-31T11:17:07;98734.69;;;28.32;33.57
44027;BME280;29696;55.698;37.460;2023-07-31T11:19:34;98728.16;;;27.92;34.32
44027;BME280;29696;55.698;37.460;2023-07-31T11:22:04;98735.44;;;27.81;34.83
44027;BME280;29696;55.698;37.460;2023-07-31T11:24:32;98722.97;;;27.80;35.19
44027;BME280;29696;55.698;37.460;2023-07-31T11:26:58;98725.16;;;27.93;35.13
44027;BME280;29696;55.698;37.460;2023-07-31T11:29:27;98731.44;;;28.09;34.49
44027;BME280;29696;55.698;37.460;2023-07-31T11:31:55;98725.44;;;28.12;35.11
44027;BME280;29696;55.698;37.460;2023-07-31T11:34:21;98722.44;;;28.04;35.51
44027;BME280;29696;55.698;37.460;2023-07-31T11:36:56;98730.59;;;28.09;34.49
44027;BME280;29696;55.698;37.460;2023-07-31T11:39:23;98719.69;;;27.78;33.96
44027;BME280;29696;55.698;37.460;2023-07-31T11:41:49;98729.22;;;27.91;34.29
44027;BME280;29696;55.698;37.460;2023-07-31T11:44:16;98716.75;;;27.95;33.79
44027;BME280;29696;55.698;37.460;2023-07-31T11:46:42;98720.25;;;28.06;34.24
44027;BME280;29696;55.698;37.460;2023-07-31T11:49:09;98725.19;;;28.19;33.75
44027;BME280;29696;55.698;37.460;2023-07-31T11:51:35;98718.66;;;28.30;33.15
44027;BME280;29696;55.698;37.460;2023-07-31T11:54:02;98728.19;;;28.48;33.98
44027;BME280;29696;55.698;37.460;2023-07-31T11:56:29;98722.72;;;28.53;34.05
44027;BME280;29696;55.698;37.460;2023-07-31T11:59:00;98734.13;;;28.65;33.27
44027;BME280;29696;55.698;37.460;2023-07-31T12:01:29;98725.72;;;28.57;34.14
44027;BME280;29696;55.698;37.460;2023-07-31T12:03:56;98725.72;;;28.41;33.76
44027;BME280;29696;55.698;37.460;2023-07-31T12:06:35;98738.47;;;28.36;34.24
44027;BME280;29696;55.698;37.460;2023-07-31T12:09:05;98737.38;;;28.01;34.38
44027;BME280;29696;55.698;37.460;2023-07-31T12:11:41;98738.16;;;27.81;34.73
44027;BME280;29696;55.698;37.460;2023-07-31T12:14:08;98731.59;;;27.72;34.52
44027;BME280;29696;55.698;37.460;2023-07-31T12:16:35;98744.63;;;27.65;35.39
44027;BME280;29696;55.698;37.460;2023-07-31T12:19:02;98738.28;;;27.39;34.70
44027;BME280;29696;55.698;37.460;2023-07-31T12:21:28;98741.50;;;27.30;35.49
44027;BME280;29696;55.698;37.460;2023-07-31T12:23:55;98748.78;;;27.25;35.70
44027;BME280;29696;55.698;37.460;2023-07-31T12:26:21;98741.69;;;27.14;35.01
44027;BME280;29696;55.698;37.460;2023-07-31T12:28:50;98745.16;;;27.09;36.04
44027;BME280;29696;55.698;37.460;2023-07-31T12:31:21;98747.09;;;27.14;35.67
44027;BME280;29696;55.698;37.460;2023-07-31T12:33:51;98739.22;;;27.12;35.96
44027;BME280;29696;55.698;37.460;2023-07-31T12:36:21;98749.34;;;27.27;35.25
44027;BME280;29696;55.698;37.460;2023-07-31T12:38:49;98740.19;;;27.38;35.41
44027;BME280;29696;55.698;37.460;2023-07-31T12:41:16;98744.31;;;27.56;35.74
44027;BME280;29696;55.698;37.460;2023-07-31T12:43:44;98745.72;;;27.74;36.78
44027;BME280;29696;55.698;37.460;2023-07-31T12:46:11;98747.41;;;27.90;35.36
44027;BME280;29696;55.698;37.460;2023-07-31T12:48:38;98750.66;;;27.87;36.22
44027;BME280;29696;55.698;37.460;2023-07-31T12:51:05;98746.78;;;27.68;36.09
44027;BME280;29696;55.698;37.460;2023-07-31T12:53:33;98742.94;;;27.53;35.68
44027;BME280;29696;55.698;37.460;2023-07-31T12:55:59;98746.44;;;27.44;34.61
44027;BME280;29696;55.698;37.460;2023-07-31T12:58:25;98747.00;;;27.51;34.68